createdAt,value
2018-01-06T00:01:18.986Z,2.20
2018-01-06T00:03:46.568Z,2.72
2018-01-06T00:06:14.632Z,1.87
2018-01-06T00:08:42.944Z,2.72
2018-01-06T00:11:10.522Z,2.40
2018-01-06T00:13:38.070Z,1.50
2018-01-06T00:16:05.630Z,2.47
2018-01-06T00:18:33.180Z,9.60
2018-01-06T00:21:00.767Z,1.87
2018-01-06T00:23:28.321Z,2.92
2018-01-06T00:25:55.871Z,5.70
2018-01-06T00:28:23.442Z,5.28
2018-01-06T00:30:51.020Z,4.03
2018-01-06T00:33:18.579Z,2.60
2018-01-06T00:35:46.147Z,2.55
2018-01-06T00:38:13.708Z,2.78
2018-01-06T00:40:41.270Z,7.75
2018-01-06T00:43:08.849Z,4.55
2018-01-06T00:45:36.420Z,2.30
2018-01-06T00:48:04.002Z,3.25
2018-01-06T00:50:31.567Z,1.87
2018-01-06T00:52:59.124Z,1.60
2018-01-06T00:55:26.712Z,6.97
2018-01-06T00:57:54.268Z,2.87
2018-01-06T01:00:21.826Z,6.90
2018-01-06T01:02:49.392Z,1.60
2018-01-06T01:05:16.957Z,2.15
2018-01-06T01:07:45.999Z,2.70
2018-01-06T01:10:13.577Z,1.70
2018-01-06T01:12:41.143Z,2.47
2018-01-06T01:15:08.700Z,6.43
2018-01-06T01:17:36.266Z,2.15
2018-01-06T01:20:03.822Z,1.77
2018-01-06T01:22:31.383Z,1.30
2018-01-06T01:24:58.945Z,3.35
2018-01-06T01:27:26.517Z,1.85
2018-01-06T01:29:54.074Z,1.92
2018-01-06T01:32:21.639Z,2.20
2018-01-06T01:34:49.185Z,1.80
2018-01-06T01:37:16.742Z,2.00
2018-01-06T01:39:44.314Z,2.05
2018-01-06T01:42:11.879Z,1.60
2018-01-06T01:44:39.453Z,3.30
2018-01-06T01:47:06.995Z,4.12
2018-01-06T01:49:34.587Z,1.30
2018-01-06T01:52:02.173Z,1.50
2018-01-06T01:54:29.752Z,3.85
2018-01-06T01:56:57.314Z,2.05
2018-01-06T01:59:24.901Z,1.30
2018-01-06T02:01:52.491Z,1.77
2018-01-06T02:04:20.029Z,2.45
2018-01-06T02:06:47.616Z,1.60
2018-01-06T02:09:15.930Z,1.10
2018-01-06T02:11:43.497Z,2.80
2018-01-06T02:14:11.045Z,1.12
2018-01-06T02:16:38.608Z,3.33
2018-01-06T02:19:06.180Z,1.12
2018-01-06T02:21:33.748Z,1.45
2018-01-06T02:24:01.351Z,0.88
2018-01-06T02:26:29.683Z,0.95
2018-01-06T02:28:57.254Z,2.00
2018-01-06T02:31:24.816Z,1.20
2018-01-06T02:33:52.371Z,0.98
2018-01-06T02:36:19.934Z,1.30
2018-01-06T02:38:47.488Z,0.85
2018-01-06T02:41:15.056Z,1.00
2018-01-06T02:43:42.615Z,0.93
2018-01-06T02:46:10.152Z,1.10
2018-01-06T02:48:37.729Z,1.92
2018-01-06T02:51:05.277Z,1.50
2018-01-06T02:53:32.816Z,1.65
2018-01-06T02:56:00.385Z,0.90
2018-01-06T02:58:27.928Z,0.88
2018-01-06T03:00:55.500Z,0.95
2018-01-06T03:03:23.038Z,1.15
2018-01-06T03:05:50.597Z,0.70
2018-01-06T03:08:18.149Z,1.40
2018-01-06T03:10:45.724Z,1.12
2018-01-06T03:13:13.271Z,1.15
2018-01-06T03:15:40.811Z,1.02
2018-01-06T03:18:09.149Z,1.33
2018-01-06T03:20:36.718Z,0.90
2018-01-06T03:23:04.288Z,2.03
2018-01-06T03:25:31.885Z,0.90
2018-01-06T03:27:59.423Z,0.90
2018-01-06T03:30:27.738Z,1.75
2018-01-06T03:32:55.312Z,1.55
2018-01-06T03:35:22.878Z,1.02
2018-01-06T03:37:50.418Z,0.77
2018-01-06T03:40:17.977Z,1.80
2018-01-06T03:42:45.534Z,0.88
2018-01-06T03:45:13.112Z,0.95
2018-01-06T03:47:40.666Z,1.30
2018-01-06T03:50:08.212Z,1.67
2018-01-06T03:52:35.783Z,0.98
2018-01-06T03:55:03.331Z,1.30
2018-01-06T03:57:30.932Z,1.50
2018-01-06T03:59:58.485Z,2.05
2018-01-06T04:02:26.033Z,2.75
2018-01-06T04:04:53.594Z,2.30
2018-01-06T04:07:21.154Z,2.80
2018-01-06T04:09:48.691Z,9.20
2018-01-06T04:12:16.255Z,2.10
2018-01-06T04:14:44.671Z,11.50
2018-01-06T04:17:12.258Z,1.90
2018-01-06T04:19:40.576Z,2.00
2018-01-06T04:22:08.132Z,2.37
2018-01-06T04:24:35.695Z,2.08
2018-01-06T04:27:03.279Z,3.22
2018-01-06T04:29:30.837Z,1.35
2018-01-06T04:31:58.429Z,2.67
2018-01-06T04:34:26.750Z,2.03
2018-01-06T04:36:54.287Z,4.60
2018-01-06T04:39:21.851Z,1.60
2018-01-06T04:41:49.405Z,1.80
2018-01-06T04:44:16.982Z,2.17
2018-01-06T04:46:44.533Z,1.73
2018-01-06T04:49:12.081Z,2.10
2018-01-06T04:51:39.661Z,1.92
2018-01-06T04:54:07.218Z,1.60
2018-01-06T04:56:34.753Z,1.75
2018-01-06T04:59:03.090Z,2.35
2018-01-06T05:01:30.632Z,7.05
2018-01-06T05:03:58.195Z,2.12
2018-01-06T05:06:25.737Z,1.60
2018-01-06T05:08:53.292Z,2.55
2018-01-06T05:11:20.860Z,2.65
2018-01-06T05:13:48.402Z,2.12
2018-01-06T05:16:15.969Z,2.40
2018-01-06T05:18:43.521Z,3.83
2018-01-06T05:21:11.055Z,2.33
2018-01-06T05:23:39.379Z,2.42
2018-01-06T05:26:06.943Z,2.92
2018-01-06T05:28:34.507Z,2.17
2018-01-06T05:31:02.060Z,1.90
2018-01-06T05:33:29.626Z,2.62
2018-01-06T05:35:57.187Z,3.17
2018-01-06T05:38:24.723Z,3.40
2018-01-06T05:40:52.294Z,2.80
2018-01-06T05:43:19.870Z,2.50
2018-01-06T05:45:47.435Z,4.47
2018-01-06T05:48:15.040Z,3.22
2018-01-06T05:50:43.372Z,2.67
2018-01-06T05:53:10.929Z,2.20
2018-01-06T05:55:38.505Z,1.95
2018-01-06T05:58:06.069Z,3.08
2018-01-06T06:00:33.636Z,2.92
2018-01-06T06:03:01.223Z,2.30
2018-01-06T06:05:28.789Z,3.00
2018-01-06T06:07:56.335Z,5.30
2018-01-06T06:10:24.683Z,2.55
2018-01-06T06:12:52.223Z,5.12
2018-01-06T06:15:19.762Z,2.22
2018-01-06T06:17:47.343Z,1.70
2018-01-06T06:20:14.916Z,1.37
2018-01-06T06:22:43.993Z,2.00
2018-01-06T06:25:11.544Z,1.87
2018-01-06T06:27:39.079Z,1.60
2018-01-06T06:30:06.655Z,1.70
2018-01-06T06:32:34.200Z,2.58
2018-01-06T06:35:02.171Z,3.00
2018-01-06T06:37:29.763Z,2.62
2018-01-06T06:39:57.322Z,2.25
2018-01-06T06:42:24.888Z,3.53
2018-01-06T06:44:52.462Z,1.75
2018-01-06T06:47:20.032Z,6.28
2018-01-06T06:49:48.366Z,2.55
2018-01-06T06:52:15.922Z,2.05
2018-01-06T06:54:44.100Z,2.30
2018-01-06T06:57:11.685Z,4.12
2018-01-06T06:59:39.227Z,3.03
2018-01-06T07:02:06.803Z,2.25
2018-01-06T07:04:34.368Z,2.80
2018-01-06T07:07:02.703Z,1.75
2018-01-06T07:09:30.269Z,3.20
2018-01-06T07:11:57.811Z,2.22
2018-01-06T07:14:25.356Z,7.07
2018-01-06T07:16:53.689Z,2.40
2018-01-06T07:19:21.233Z,2.22
2018-01-06T07:21:48.798Z,2.80
2018-01-06T07:24:16.372Z,2.70
2018-01-06T07:26:43.921Z,2.42
2018-01-06T07:29:11.464Z,1.90
2018-01-06T07:31:39.055Z,2.15
2018-01-06T07:34:06.596Z,4.00
2018-01-06T07:36:34.160Z,2.45
2018-01-06T07:39:01.737Z,2.70
2018-01-06T07:41:29.290Z,2.60
2018-01-06T07:43:56.848Z,3.37
2018-01-06T07:46:24.411Z,4.03
2018-01-06T07:48:51.975Z,8.18
2018-01-06T07:51:19.592Z,6.18
2018-01-06T07:53:47.920Z,4.37
2018-01-06T07:56:15.457Z,3.45
2018-01-06T07:58:43.047Z,6.75
2018-01-06T08:01:11.355Z,3.55
2018-01-06T08:03:38.916Z,3.83
2018-01-06T08:06:06.497Z,4.10
2018-01-06T08:08:34.040Z,4.15
2018-01-06T08:11:01.597Z,6.40
2018-01-06T08:13:29.151Z,4.75
2018-01-06T08:15:56.863Z,5.45
2018-01-06T08:18:24.452Z,4.82
2018-01-06T08:20:52.771Z,3.58
2018-01-06T08:23:20.335Z,4.90
2018-01-06T08:25:47.915Z,4.50
2018-01-06T08:28:15.478Z,4.72
2018-01-06T08:30:43.067Z,3.30
2018-01-06T08:33:11.377Z,3.50
2018-01-06T08:35:38.945Z,6.65
2018-01-06T08:38:06.502Z,4.32
2018-01-06T08:40:34.049Z,7.15
2018-01-06T08:43:01.616Z,3.50
2018-01-06T08:45:29.150Z,3.22
2018-01-06T08:47:57.461Z,4.15
2018-01-06T08:50:25.028Z,3.35
2018-01-06T08:52:52.602Z,2.20
2018-01-06T08:55:20.148Z,2.05
2018-01-06T08:57:47.715Z,1.75
2018-01-06T09:00:15.278Z,2.95
2018-01-06T09:02:42.822Z,1.50
2018-01-06T09:05:10.415Z,1.60
2018-01-06T09:07:38.308Z,1.40
2018-01-06T09:10:06.644Z,1.60
2018-01-06T09:12:34.226Z,1.63
2018-01-06T09:15:01.791Z,1.70
2018-01-06T09:17:30.131Z,2.20
2018-01-06T09:19:57.699Z,1.70
2018-01-06T09:22:25.243Z,1.33
2018-01-06T09:24:52.820Z,2.57
2018-01-06T09:27:20.406Z,1.20
2018-01-06T09:29:48.720Z,1.60
2018-01-06T09:32:16.294Z,1.20
2018-01-06T09:34:43.884Z,1.63
2018-01-06T09:37:11.431Z,1.53
2018-01-06T09:39:38.998Z,1.53
2018-01-06T09:42:06.581Z,1.27
2018-01-06T09:44:34.138Z,1.60
2018-01-06T09:47:01.684Z,1.20
2018-01-06T09:49:29.255Z,1.37
2018-01-06T09:51:56.795Z,0.90
2018-01-06T09:54:24.358Z,0.90
2018-01-06T09:56:51.931Z,1.50
2018-01-06T09:59:19.501Z,1.23
2018-01-06T10:01:47.827Z,3.20
2018-01-06T10:04:15.389Z,1.27
2018-01-06T10:06:42.934Z,3.43
2018-01-06T10:09:10.476Z,1.83
2018-01-06T10:11:38.816Z,1.30
2018-01-06T10:14:06.374Z,1.27
2018-01-06T10:16:33.934Z,1.30
2018-01-06T10:19:01.509Z,1.80
2018-01-06T10:21:29.080Z,0.80
2018-01-06T10:23:57.411Z,1.20
2018-01-06T10:26:24.999Z,1.23
2018-01-06T10:28:53.311Z,1.00
2018-01-06T10:31:21.633Z,7.83
2018-01-06T10:33:49.231Z,1.60
2018-01-06T10:36:17.568Z,1.47
2018-01-06T10:38:45.126Z,1.40
2018-01-06T10:41:12.705Z,1.20
2018-01-06T10:43:40.253Z,1.67
2018-01-06T10:46:07.791Z,1.00
2018-01-06T10:48:35.369Z,2.40
2018-01-06T10:51:02.921Z,0.93
2018-01-06T10:53:30.476Z,3.80
2018-01-06T10:55:58.040Z,1.17
2018-01-06T10:58:25.582Z,0.90
2018-01-06T11:00:58.893Z,1.37
2018-01-06T11:03:26.453Z,0.80
2018-01-06T11:05:53.996Z,0.80
2018-01-06T11:08:21.556Z,2.93
2018-01-06T11:10:49.114Z,1.00
2018-01-06T11:13:16.683Z,1.17
2018-01-06T11:15:44.272Z,0.80
2018-01-06T11:18:11.835Z,1.73
2018-01-06T11:20:39.399Z,3.73
2018-01-06T11:23:07.707Z,1.30
2018-01-06T11:25:36.039Z,1.27
2018-01-06T11:28:03.611Z,1.13
2018-01-06T11:30:33.448Z,0.60
2018-01-06T11:33:01.117Z,1.17
2018-01-06T11:35:29.424Z,1.10
2018-01-06T11:37:56.985Z,0.70
2018-01-06T11:40:24.544Z,0.70
2018-01-06T11:42:52.115Z,0.83
2018-01-06T11:45:19.678Z,0.80
2018-01-06T11:47:47.239Z,1.10
2018-01-06T11:50:14.788Z,0.80
2018-01-06T11:52:42.349Z,1.60
2018-01-06T11:55:09.971Z,0.80
2018-01-06T11:57:38.337Z,1.00
2018-01-06T12:00:06.649Z,0.70
2018-01-06T12:02:34.197Z,1.53
2018-01-06T12:05:01.764Z,3.70
2018-01-06T12:07:29.392Z,0.80
2018-01-06T12:09:57.740Z,1.20
2018-01-06T12:12:25.282Z,1.70
2018-01-06T12:14:52.867Z,1.97
2018-01-06T12:17:21.219Z,1.17
2018-01-06T12:19:48.758Z,2.40
2018-01-06T12:22:16.338Z,1.47
2018-01-06T12:24:43.907Z,2.53
2018-01-06T12:27:11.465Z,1.10
2018-01-06T12:29:39.055Z,2.70
2018-01-06T12:32:06.613Z,1.10
2018-01-06T12:34:34.195Z,0.93
2018-01-06T12:37:02.501Z,2.40
2018-01-06T12:39:30.053Z,1.00
2018-01-06T12:41:57.640Z,0.97
2018-01-06T12:44:25.212Z,1.90
2018-01-06T12:46:52.785Z,3.37
2018-01-06T12:49:20.353Z,1.20
2018-01-06T12:51:47.899Z,1.23
2018-01-06T12:54:15.482Z,1.17
2018-01-06T12:56:43.788Z,0.90
2018-01-06T12:59:11.341Z,1.10
2018-01-06T13:01:38.925Z,1.23
2018-01-06T13:04:06.472Z,2.00
2018-01-06T13:06:34.025Z,1.00
2018-01-06T13:09:01.609Z,1.00
2018-01-06T13:11:29.166Z,0.90
2018-01-06T13:13:56.735Z,1.10
2018-01-06T13:16:25.120Z,1.13
2018-01-06T13:18:52.663Z,1.13
2018-01-06T13:21:20.247Z,1.83
2018-01-06T13:23:47.817Z,1.23
2018-01-06T13:26:15.368Z,0.80
2018-01-06T13:28:43.704Z,0.80
2018-01-06T13:31:11.262Z,0.90
2018-01-06T13:33:38.831Z,1.53
2018-01-06T13:36:06.420Z,1.10
2018-01-06T13:38:33.982Z,1.47
2018-01-06T13:41:02.311Z,1.00
2018-01-06T13:43:29.883Z,1.00
2018-01-06T13:45:57.423Z,1.43
2018-01-06T13:48:24.991Z,1.53
2018-01-06T13:50:52.538Z,1.20
2018-01-06T13:53:20.876Z,1.60
2018-01-06T13:55:48.446Z,1.07
2018-01-06T13:58:16.001Z,1.03
2018-01-06T14:00:44.317Z,0.70
2018-01-06T14:03:11.889Z,0.87
2018-01-06T14:05:39.484Z,0.90
2018-01-06T14:08:07.033Z,0.83
2018-01-06T14:10:34.629Z,1.07
2018-01-06T14:13:03.826Z,0.73
2018-01-06T14:15:32.167Z,6.63
2018-01-06T14:17:59.722Z,1.33
2018-01-06T14:20:27.272Z,1.10
2018-01-06T14:22:54.857Z,1.40
2018-01-06T14:25:22.428Z,1.80
2018-01-06T14:27:49.998Z,3.07
2018-01-06T14:30:17.577Z,3.43
2018-01-06T14:32:45.919Z,2.10
2018-01-06T14:35:14.596Z,1.63
2018-01-06T14:37:42.181Z,1.00
2018-01-06T14:40:10.553Z,1.23
2018-01-06T14:42:38.104Z,1.20
2018-01-06T14:45:05.672Z,1.37
2018-01-06T14:47:33.750Z,4.40
2018-01-06T14:50:01.310Z,6.00
2018-01-06T14:52:28.885Z,2.73
2018-01-06T14:54:57.202Z,1.47
2018-01-06T14:57:24.762Z,1.10
2018-01-06T14:59:52.352Z,0.90
2018-01-06T15:02:19.914Z,2.90
2018-01-06T15:04:47.459Z,1.13
2018-01-06T15:07:15.055Z,0.80
2018-01-06T15:09:43.378Z,0.73
2018-01-06T15:12:10.941Z,0.80
2018-01-06T15:14:38.531Z,1.87
2018-01-06T15:17:06.077Z,0.63
2018-01-06T15:19:33.638Z,1.03
2018-01-06T15:22:01.222Z,1.37
2018-01-06T15:24:28.773Z,2.10
2018-01-06T15:26:56.329Z,1.33
2018-01-06T15:29:23.931Z,1.60
2018-01-06T15:31:51.479Z,0.97
2018-01-06T15:34:19.069Z,1.25
2018-01-06T15:36:46.659Z,0.98
2018-01-06T15:39:14.235Z,1.23
2018-01-06T15:41:42.263Z,3.42
2018-01-06T15:44:09.835Z,0.90
2018-01-06T15:46:37.378Z,1.48
2018-01-06T15:49:04.920Z,3.33
2018-01-06T15:51:32.505Z,2.25
2018-01-06T15:54:00.075Z,1.08
2018-01-06T15:56:27.656Z,1.37
2018-01-06T15:58:55.195Z,2.60
2018-01-06T16:01:22.744Z,2.37
2018-01-06T16:03:50.313Z,4.45
2018-01-06T16:06:17.863Z,13.43
2018-01-06T16:08:45.442Z,3.87
2018-01-06T16:11:13.765Z,3.78
2018-01-06T16:13:42.089Z,3.33
2018-01-06T16:16:09.662Z,2.78
2018-01-06T16:18:37.213Z,3.12
2018-01-06T16:21:05.529Z,2.00
2018-01-06T16:23:33.877Z,10.07
2018-01-06T16:26:01.438Z,4.35
2018-01-06T16:28:29.007Z,3.37
2018-01-06T16:30:56.592Z,5.35
2018-01-06T16:33:24.904Z,4.53
2018-01-06T16:35:52.510Z,6.57
2018-01-06T16:38:20.072Z,8.98
2018-01-06T16:40:47.630Z,12.50
2018-01-06T16:43:15.197Z,8.27
2018-01-06T16:45:43.507Z,12.20
2018-01-06T16:48:11.067Z,17.62
2018-01-06T16:50:38.642Z,17.98
2018-01-06T16:53:06.203Z,15.13
2018-01-06T16:55:33.781Z,11.35
2018-01-06T16:58:01.330Z,25.35
2018-01-06T17:00:28.885Z,10.98
2018-01-06T17:02:56.472Z,17.48
2018-01-06T17:05:24.047Z,12.23
2018-01-06T17:07:51.642Z,15.95
2018-01-06T17:10:19.189Z,7.03
2018-01-06T17:12:47.510Z,12.48
2018-01-06T17:15:15.076Z,11.25
2018-01-06T17:17:42.612Z,8.10
2018-01-06T17:20:10.147Z,5.93
2018-01-06T17:22:38.467Z,4.10
2018-01-06T17:25:06.036Z,5.22
2018-01-06T17:27:33.613Z,7.95
2018-01-06T17:30:01.155Z,6.15
2018-01-06T17:32:28.695Z,13.05
2018-01-06T17:34:56.261Z,5.78
2018-01-06T17:37:23.817Z,5.55
2018-01-06T17:39:51.355Z,13.00
2018-01-06T17:42:18.933Z,11.55
2018-01-06T17:44:46.492Z,10.63
2018-01-06T17:47:14.036Z,12.85
2018-01-06T17:49:41.602Z,8.57
2018-01-06T17:52:09.159Z,10.05
2018-01-06T17:54:36.743Z,9.50
2018-01-06T17:57:04.287Z,8.63
2018-01-06T17:59:31.834Z,12.32
2018-01-06T18:01:59.428Z,8.50
2018-01-06T18:04:26.985Z,11.63
2018-01-06T18:06:54.533Z,9.50
2018-01-06T18:09:22.101Z,9.60
2018-01-06T18:11:49.667Z,15.40
2018-01-06T18:14:17.214Z,13.00
2018-01-06T18:16:44.784Z,6.87
2018-01-06T18:19:12.338Z,6.95
2018-01-06T18:21:39.937Z,10.60
2018-01-06T18:24:08.239Z,9.80
2018-01-06T18:26:35.797Z,10.93
2018-01-06T18:29:03.353Z,9.02
2018-01-06T18:31:30.921Z,11.27
2018-01-06T18:33:58.502Z,6.12
2018-01-06T18:36:26.053Z,7.18
2018-01-06T18:38:54.390Z,10.52
2018-01-06T18:41:22.726Z,7.43
2018-01-06T18:43:50.262Z,7.87
2018-01-06T18:46:17.836Z,5.68
2018-01-06T18:48:45.400Z,9.38
2018-01-06T18:51:12.940Z,6.60
2018-01-06T18:53:40.500Z,9.07
2018-01-06T18:56:08.050Z,5.62
2018-01-06T18:58:35.630Z,7.25
2018-01-06T19:01:03.192Z,7.20
2018-01-06T19:03:30.751Z,5.62
2018-01-06T19:05:58.343Z,6.47
2018-01-06T19:08:26.073Z,5.18
2018-01-06T19:10:53.649Z,7.15
2018-01-06T19:13:21.213Z,4.68
2018-01-06T19:15:48.776Z,5.32
2018-01-06T19:18:16.405Z,6.12
2018-01-06T19:20:43.954Z,4.97
2018-01-06T19:23:11.534Z,9.40
2018-01-06T19:25:39.097Z,8.32
2018-01-06T19:28:06.664Z,8.77
2018-01-06T19:30:34.242Z,9.20
2018-01-06T19:33:01.793Z,7.65
2018-01-06T19:35:29.364Z,6.65
2018-01-06T19:37:56.924Z,8.45
2018-01-06T19:40:24.818Z,6.82
2018-01-06T19:42:53.147Z,9.35
2018-01-06T19:45:20.711Z,5.50
2018-01-06T19:47:48.249Z,5.55
2018-01-06T19:50:15.830Z,7.25
2018-01-06T19:52:43.469Z,5.53
2018-01-06T19:55:11.030Z,6.07
2018-01-06T19:57:38.614Z,7.10
2018-01-06T20:00:06.152Z,8.85
2018-01-06T20:02:34.482Z,5.95
2018-01-06T20:05:02.818Z,9.93
2018-01-06T20:07:30.364Z,8.93
2018-01-06T20:09:57.933Z,9.70
2018-01-06T20:12:25.503Z,8.32
2018-01-06T20:14:53.095Z,7.85
2018-01-06T20:17:21.420Z,6.65
2018-01-06T20:19:48.983Z,6.35
2018-01-06T20:22:16.570Z,8.20
2018-01-06T20:24:44.135Z,7.78
2018-01-06T20:27:11.701Z,7.30
2018-01-06T20:29:39.282Z,7.55
2018-01-06T20:32:07.592Z,11.05
2018-01-06T20:34:35.145Z,8.85
2018-01-06T20:37:02.722Z,8.38
2018-01-06T20:39:30.811Z,10.52
2018-01-06T20:41:58.384Z,6.40
2018-01-06T20:44:25.953Z,9.25
2018-01-06T20:46:53.506Z,6.03
2018-01-06T20:49:21.046Z,7.15
2018-01-06T20:51:49.385Z,6.68
2018-01-06T20:54:16.933Z,5.87
2018-01-06T20:56:45.295Z,5.78
2018-01-06T20:59:13.729Z,4.22
2018-01-06T21:01:41.290Z,6.97
2018-01-06T21:04:08.863Z,8.52
2018-01-06T21:06:36.427Z,8.77
2018-01-06T21:09:04.040Z,5.20
2018-01-06T21:11:31.600Z,4.78
2018-01-06T21:13:59.158Z,7.50
2018-01-06T21:16:26.720Z,5.57
2018-01-06T21:18:54.274Z,5.72
2018-01-06T21:21:21.830Z,4.50
2018-01-06T21:23:50.160Z,9.52
2018-01-06T21:26:17.718Z,3.75
2018-01-06T21:28:45.273Z,4.22
2018-01-06T21:31:12.856Z,5.25
2018-01-06T21:33:40.399Z,6.78
2018-01-06T21:36:07.983Z,8.45
2018-01-06T21:38:36.314Z,3.83
2018-01-06T21:41:03.851Z,9.55
2018-01-06T21:43:31.432Z,4.65
2018-01-06T21:45:58.981Z,6.55
2018-01-06T21:48:26.519Z,5.60
2018-01-06T21:50:54.111Z,6.65
2018-01-06T21:53:21.647Z,6.43
2018-01-06T21:55:49.351Z,4.75
2018-01-06T21:58:16.917Z,6.10
2018-01-06T22:00:44.490Z,6.30
2018-01-06T22:03:12.069Z,5.05
2018-01-06T22:05:40.386Z,5.10
2018-01-06T22:08:07.932Z,5.57
2018-01-06T22:10:35.501Z,4.28
2018-01-06T22:13:03.072Z,4.35
2018-01-06T22:15:30.652Z,5.68
2018-01-06T22:17:58.205Z,3.72
2018-01-06T22:20:25.757Z,7.80
2018-01-06T22:22:53.310Z,5.78
2018-01-06T22:25:20.875Z,6.18
2018-01-06T22:27:48.481Z,7.53
2018-01-06T22:30:16.817Z,4.37
2018-01-06T22:32:44.356Z,4.22
2018-01-06T22:35:12.951Z,6.15
2018-01-06T22:37:40.516Z,3.90
2018-01-06T22:40:08.072Z,5.25
2018-01-06T22:42:35.663Z,4.40
2018-01-06T22:45:03.217Z,10.15
2018-01-06T22:47:30.764Z,6.80
2018-01-06T22:49:58.323Z,5.07
2018-01-06T22:52:25.859Z,4.40
2018-01-06T22:54:53.423Z,4.65
2018-01-06T22:57:21.002Z,8.10
2018-01-06T22:59:48.559Z,7.65
2018-01-06T23:02:16.133Z,16.15
2018-01-06T23:04:43.699Z,8.15
2018-01-06T23:07:11.268Z,9.02
2018-01-06T23:09:39.595Z,9.95
2018-01-06T23:12:07.145Z,10.13
2018-01-06T23:14:34.721Z,8.15
2018-01-06T23:17:02.279Z,8.90
2018-01-06T23:19:29.837Z,9.07
2018-01-06T23:21:57.394Z,8.00
2018-01-06T23:24:24.949Z,9.60
2018-01-06T23:26:52.518Z,10.68
2018-01-06T23:29:20.107Z,11.65
2018-01-06T23:31:47.666Z,16.52
2018-01-06T23:34:15.238Z,12.82
2018-01-06T23:36:42.803Z,13.10
2018-01-06T23:39:11.118Z,10.13
2018-01-06T23:41:38.668Z,12.35
2018-01-06T23:44:08.174Z,11.38
2018-01-06T23:46:35.743Z,16.17
2018-01-06T23:49:03.302Z,12.35
2018-01-06T23:51:30.880Z,16.70
2018-01-06T23:53:58.433Z,14.85
2018-01-06T23:56:25.999Z,16.87
2018-01-06T23:58:53.554Z,12.98
